Terminal Aerodrome Forecast
Issued by NWS

Home | Current Version | Previous Version | Text Only | Print | Product List | Glossary On
Versions: 1 2 3 4 5 6 7 8 9 10 11 12 13 14 15
000
FTUS43 KDLH 011728
TAFBRD
TAF
KBRD 011728Z 0118/0218 28007KT P6SM SKC
     FM020000 27007KT P6SM VCTS SCT060CB BKN150
     FM020500 VRB03KT P6SM SCT100
     FM021500 34007KT P6SM VCSH FEW025 BKN100=

USA.gov is the U.S. government's official web portal to all federal, state and local government web resources and services.